Pilot Magazine UKGA

About You

Log In Register UKGA membership

Flight planning

Flight planning New flightplan NOTAM map LARS map & NOTAMs Danger area, mil. & TRA activations Weather map GPS route download Find waypoints Your waypoints New waypoint

Forums

Forums Currently discussing "Are you still in business for a/c share sales?"

Other items

Articles Events Links News Surveys Tips Other users Feedback UKGA membership About UKGA

TAFs

UK

TAF EGAA 011659Z 0118/0218 19010KT 9999 SCT025 BKN040 
      BECMG 0214/0217 09004KT PROB40 0214/0218 3000 DZ BR BKN008
      
TAF EGAC 011700Z 0118/0122 19005KT 9999 BKN035
      
TAF EGAE 011700Z 0118/0121 19008KT 9999 SCT020 BKN040
      
TAF EGBB 011703Z 0118/0218 VRB03KT 3000 BR BKN005 
      TEMPO 0118/0212 1400 BKN003 PROB40 0118/0209 0300 FG VV/// 
      BECMG 0209/0212 BKN020 
      BECMG 0215/0218 9999
      
TAF AMD EGBJ 011744Z 0118/0120 VRB02KT 0300 FG VV/// PROB30 
      TEMPO 0118/0120 0900
      
TAF EGCC 011659Z 0118/0224 18003KT 5000 HZ SCT005 
      TEMPO 0118/0119 3000 BR BKN005 PROB40 
      TEMPO 0118/0119 BKN004 
      TEMPO 0119/0211 2000 BR BKN004 PROB30 0119/0211 0600 FG VV/// PROB40 0211/0217 4000 BR BKN009 
      BECMG 0217/0220 9999 NSW PROB30 0220/0224 9000
      
TAF EGCK 020156Z 0203/0212 06003KT 9999 FEW040 PROB30 
      TEMPO 0203/0209 8000
      
TAF EGDM 011330Z 0115/0119 VRB03KT 0500 FG VV/// PROB30 0115/0116 2000 BR BKN003
      
TAF EGDR 011342Z 0115/0124 12012KT 9999 SCT030 PROB30 
      TEMPO 0117/0124 7000 -RA -SHRA SCT014 BKN018 
      BECMG 0118/0120 6000 HZ PROB40 
      TEMPO 0119/0124 4000 HZ SCT008
      
TAF EGDY 011315Z 0115/0124 VRB03KT 0200 FG BKN000 PROB30 
      TEMPO 0115/0117 2000 BR FEW003 BKN005
      
TAF EGEC 011354Z 0115/0118 17012KT 9999 FEW010 BKN030
      
TAF EGEO 011354Z 0115/0117 13009KT 9999 BKN020 
      TEMPO 0115/0117 6000 -RADZ BKN012 PROB40 
      TEMPO 0115/0117 3000 DZ BR BKN008
      
TAF EGFF 011702Z 0118/0218 07005KT 2000 BR BKN002 
      TEMPO 0118/0209 OVC001 PROB40 
      TEMPO 0118/0209 0300 FG 
      BECMG 0208/0211 9999 NSW FEW010
      
TAF EGGD 011702Z 0118/0218 08004KT 0100 FG VV/// PROB30 
      TEMPO 0118/0212 1500 BR BKN002 
      BECMG 0212/0215 9999 NSW FEW007 PROB30 
      TEMPO 0215/0218 BKN007
      
TAF AMD EGGP 020315Z 0203/0224 13006KT 3000 BR BKN003 PROB40 
      TEMPO 0203/0212 0300 FG VV/// 
      BECMG 0212/0215 6000 NSW BKN014 PROB40 
      TEMPO 0215/0221 3000 BR BKN007 
      BECMG 0221/0224 9999 SCT020
      
TAF AMD EGGW 020334Z 0203/0224 01006KT 0200 FG VV/// PROB30 
      TEMPO 0203/0209 1500 BR BKN002 
      BECMG 0209/0212 9999 NSW FEW018 
      TEMPO 0212/0215 BKN008 PROB30 
      TEMPO 0215/0220 8000 SHRA BKN009
      
TAF EGHC 011357Z 0115/0121 16009KT 9999 FEW025
      
TAF EGHE 011357Z 0115/0121 15012KT 9999 FEW030
      
TAF EGHH 011702Z 0118/0122 VRB03KT 0300 FG VV/// 
      TEMPO 0118/0122 0800
      
TAF EGHI 011957Z 0121/0123 VRB03KT 0300 FG VV/// 
      TEMPO 0121/0123 2000 BR SCT001
      
TAF EGHQ 020158Z 0203/0212 10009KT 9999 FEW025= TAF EGNJ 020156Z 0203/0212 21003KT 0500 FG FEW003 
      TEMPO 0203/0206 0100 VV/// 
      BECMG 0206/0209 3000 BR 
      BECMG 0209/0212 9999 NSW
      
TAF EGJA 011844Z 0118/0200 CNL
      
TAF EGJB 020153Z 0203/0212 10008KT 9999 FEW020 BKN040 PROB30 
      TEMPO 0203/0212 9000 -SHRA SCT012 BKN020
      
TAF EGJJ 020153Z 0203/0212 10008KT 9999 SCT040 PROB30 
      TEMPO 0203/0206 4000 MIFG SCT001
      
TAF EGKA 011658Z 0118/0120 35008KT 2000 BR SCT002 PROB40 0118/0120 0300 FG VV///
      
TAF EGKB 012000Z 0121/0123 36005KT 2000 BR SCT002 
      TEMPO 0121/0123 0200 FG VV///
      
TAF EGKK 011700Z 0118/0224 33005KT 3000 BR BKN003 PROB40 
      TEMPO 0118/0207 0300 FG VV/// 
      BECMG 0207/0210 03010KT 9999 NSW PROB30 
      TEMPO 0210/0224 8000 SHRA BKN013
      
TAF EGLC 020154Z 0203/0212 02007KT 9999 SCT020 
      TEMPO 0203/0207 2500 BR BKN004 PROB30 
      TEMPO 0203/0207 0400 FG BKN001 PROB30 
      TEMPO 0207/0210 6000
      
TAF AMD EGLF 011819Z 0118/0122 32004KT 1500 BR SCT002 
      TEMPO 0118/0122 0300 FG VV///
      
TAF EGLL 011659Z 0118/0224 01005KT 9999 SCT009 
      TEMPO 0118/0207 0500 FG BKN001 PROB30 
      TEMPO 0207/0209 4000 BR BKN004 PROB30 
      TEMPO 0215/0221 8000 SHRA
      
TAF EGMC 020154Z 0203/0212 03005KT 9999 SCT020 
      TEMPO 0203/0206 2000 BR BKN003 PROB30 
      TEMPO 0206/0212 8000 -SHRA BKN014
      
TAF EGMD 020154Z 0203/0212 04005KT 9999 SCT025 
      TEMPO 0203/0209 3000 BR BKN004 PROB30 
      TEMPO 0203/0212 6000 SHRA BKN014
      
TAF AMD EGNH 011820Z 0118/0121 15007KT 6000 SCT005 BKN035 
      TEMPO 0118/0121 3500 BR BKN004
      
TAF EGNJ 020156Z 0203/0212 21003KT 0500 FG FEW003 
      TEMPO 0203/0206 0100 VV/// 
      BECMG 0206/0209 3000 BR 
      BECMG 0209/0212 9999 NSW
      
TAF EGNM 020045Z 0200/0224 CNL
      
TAF AMD EGNO 011759Z 0117/0119 14005KT 6000 FEW007 BKN030 
      TEMPO 0117/0119 4000 BR BKN004
      
TAF EGNR 011701Z 0118/0120 16006KT 6000 BKN005 OVC035 
      BECMG 0118/0120 1400 BR BKN002 PROB30 0118/0120 0600 FG VV///
      
TAF EGNS 011700Z 0118/0122 19010KT 9999 FEW008 SCT025 BKN040= TAF EPLK 011700Z 0118/0203 09005KT 9999 OVC015
      
TAF EGNT 011659Z 0118/0218 18003KT 6000 FEW003 BKN016 
      TEMPO 0118/0207 2500 -RADZ BR BKN003 PROB30 
      TEMPO 0118/0207 0300 FG BKN001 PROB40 
      TEMPO 0207/0211 4500 -RADZ BR BKN009 
      BECMG 0212/0215 9999
      
TAF EGNV 011701Z 0118/0122 18005KT 5000 BR SCT004 BKN016 
      TEMPO 0118/0122 1800 -RADZ BKN004 PROB30 
      TEMPO 0118/0122 0600 FG BKN001
      
TAF AMD EGNX 012234Z 0122/0218 VRB03KT 5000 BR BKN002 
      TEMPO 0122/0210 1400 SCT002 PROB40 0122/0208 0300 FG VV/// 
      BECMG 0206/0209 SCT025 
      BECMG 0212/0215 9999 NSW
      
TAF EGOS 011333Z 0115/0118 VRB05KT 4000 BR BKN004 PROB30 0115/0118 6000 HZ BKN006
      
TAF EGOV 011638Z 0115/0120 CNL
      
TAF EGOW 011326Z 0115/0118 14010KT 6000 HZ FEW007 BKN030 
      TEMPO 0115/0118 SCT007 PROB30 
      TEMPO 0115/0118 BKN005 
      BECMG 0116/0118 4000
      
TAF EGPA 020200Z 0203/0212 17012KT 9999 FEW012 BKN025 
      TEMPO 0203/0212 8000 -RA BKN007 PROB30 
      TEMPO 0203/0212 4000 RADZ BKN004 PROB30 
      TEMPO 0210/0212 17015G25KT
      
TAF EGPB 020200Z 0203/0212 18020KT 9999 SCT006 OVC010 
      TEMPO 0203/0212 5000 RA -RADZ BKN004 PROB40 
      TEMPO 0203/0212 19025G35KT 2000 DZ BR
      
TAF EGPC 020200Z 0203/0212 17009KT 9999 FEW015 BKN030 
      TEMPO 0203/0212 8000 -RA BKN007 PROB30 
      TEMPO 0203/0212 4000 RADZ BKN004
      
TAF AMD EGPD 020258Z 0203/0224 16007KT 9999 SCT007 BKN040 
      TEMPO 0203/0210 6000 -RADZ BKN006 PROB30 
      TEMPO 0203/0210 2000 DZRA BR BKN003 PROB30 
      TEMPO 0210/0214 6000 RA -RADZ BKN007
      
TAF EGPE 020200Z 0203/0212 22002KT 9999 FEW020 SCT035 PROB30 
      TEMPO 0209/0212 8000 -RA
      
TAF AMD EGPF 012053Z 0121/0218 08005KT 9999 SCT020 
      TEMPO 0121/0212 4000 BR PROB30 0200/0211 1200 
      TEMPO 0212/0218 3000 -DZ BR BKN006 PROB30 
      TEMPO 0212/0218 1200 DZ BKN003
      
TAF EGPH 011658Z 0118/0218 VRB03KT 9999 FEW008 SCT020 PROB30 
      TEMPO 0118/0121 7000 
      BECMG 0121/0124 6000 
      TEMPO 0121/0213 3000 BR 
      BECMG 0209/0212 06010KT PROB30 0210/0213 0300 DZ FG BKN001 PROB40 
      TEMPO 0213/0218 4000 BR
      
TAF EGPI 020157Z 0203/0212 17009KT 9999 FEW015 SCT035
      
TAF EGPK 011658Z 0118/0218 14009KT 9999 SCT025 PROB30 
      TEMPO 0118/0124 7000 
      BECMG 0200/0203 6000 
      TEMPO 0200/0213 3000 BR PROB30 0203/0210 1200 PROB30 
      TEMPO 0213/0218 9999 BKN012
      
TAF EGPL 011355Z 0115/0118 20017KT 9999 SCT012 BKN016 
      TEMPO 0115/0118 6000 -RADZ BKN008 PROB30 
      TEMPO 0115/0118 21020G30KT
      
TAF AMD EGPN 012005Z 0120/0121 11003KT 6000 SCT008 
      TEMPO 0120/0121 4000 -DZ BR BKN003
      
TAF EGPO 020200Z 0203/0212 18017KT 9999 SCT015 BKN025 
      TEMPO 0203/0212 BKN012 PROB30 
      TEMPO 0203/0212 19020G30KT 6000 RA -RADZ BKN008
      
TAF EGPU 011354Z 0115/0119 19017KT 9999 FEW015 SCT030 PROB40 
      TEMPO 0115/0119 BKN012
      
TAF EGQL 020129Z 0203/0212 VRB02KT 8000 BR FEW012 BKN025 
      TEMPO 0203/0212 3000 -DZ BR SCT005 BKN012 PROB30 
      TEMPO 0203/0210 0700 FG SCT001
      
TAF EGQS 020138Z 0203/0221 18008KT 9999 BKN044
      
TAF EGSC 011356Z 0115/0118 36004KT 2000 BR BKN003 PROB30 
      TEMPO 0115/0117 8000 NSW FEW005 PROB30 0116/0118 0300 FG BKN001
      
TAF EGSH 020153Z 0203/0212 35004KT 9999 FEW040 PROB30 
      TEMPO 0203/0206 8000 PROB30 
      TEMPO 0206/0209 7000 SHRA
      
TAF AMD EGSS 020334Z 0203/0306 01005KT 0300 FG VV/// PROB40 
      TEMPO 0203/0207 1500 BR BKN002 
      BECMG 0207/0210 8000 NSW FEW015 
      BECMG 0210/0212 9999 PROB30 
      TEMPO 0214/0219 8000 SHRA BKN012
      
TAF EGSY 020158Z 0203/0212 08007KT 0300 FG VV/// PROB30 
      TEMPO 0203/0209 2000 BR SCT001 
      BECMG 0209/0212 9999 NSW SCT008
      
TAF EGTC 011356Z 0115/0119 VRB03KT 0300 FG VV/// PROB30 
      TEMPO 0115/0118 4000 BR SCT005
      
TAF EGTE 012253Z 0118/0203 CNL
      
TAF EGTK 011958Z 0121/0123 VRB03KT 0300 FG VV///
      
TAF EGUB 011339Z 0115/0123 VRB02KT 0200 FG VV/// PROB40 
      TEMPO 0115/0118 3000 BR BKN004 PROB30 
      TEMPO 0115/0117 5000 BR
      
TAF AMD EGUL 011711Z 0117/0220 31006KT 3200 BR BKN006 QNH3037INS 
      TEMPO 0117/0118 2400 BR BKN003 
      TEMPO 0201/0205 1600 BR BKN002 OVC030 
      BECMG 0206/0207 VRB06KT 9000 BR SCT008 BKN025 QNH3028INS TX08/0214Z TN04/0208Z LAST NO 
      AMDS AFT 0117 NEXT 0206
      
TAF AMD EGUN 020000Z 0200/0302 32005KT 0400 FG VV001 600351 600804 QNH3028INS 
      TEMPO 0200/0205 36007KT 1000 BR BCFG BKN003 BKN025 
      BECMG 0205/0207 01006KT 3200 BR SCT004 BKN009 BKN030 620352 QNH3027INS 
      BECMG 0207/0209 03007KT 8000 BR SCT012 BKN035 620353 QNH3026INS 
      BECMG 0209/0211 05010KT 9999 NSW SCT020 BKN040 600402 QNH3025INS 
      TEMPO 0212/0216 05015KT -SHRA BKN020 BKN040 610307 
      BECMG 0216/0218 07012KT 9999 FEW012 BKN025 BKN050 600302 QNH3028INS 
      BECMG 0223/0224 08010KT 9999 SCT015 BKN030 WS014/07030KT 600302 510202 QNH3025INS 
      TEMPO 0300/0302 07010G20KT 510004 TX09/0213Z TN02/0206Z
      
TAF EGUW 011650Z 0118/0124 02004KT 2500 BR SCT040 PROB30 
      TEMPO 0118/0122 0500 FG BKN001
      
TAF AMD EGVA 011635Z 0116/0219 VRB06KT 0400 FG VV001 QNH3034INS 
      BECMG 0208/0209 05006KT 1600 BR SCT002 BKN012 QNH3028INS 
      BECMG 0210/0211 05006KT 8000 BR FEW012 BKN020 QNH3025INS TX03/0117Z TN02/0205Z LAST NO 
      AMDS AFT 0117 NEXT 0205
      
TAF EGVN 020134Z 0203/0303 04003KT 0300 FG VV/// PROB30 0207/0209 3000 BR SCT004 
      BECMG 0209/0212 9999 NSW SCT030 PROB30 
      TEMPO 0212/0303 SCT014
      
TAF EGVO 011335Z 0115/0203 02003KT 0300 FG VV/// PROB40 
      TEMPO 0115/0117 2000 BR BKN003
      
TAF EGVP 011348Z 0115/0119 06002KT 9999 FEW008 PROB40 
      TEMPO 0115/0116 4000 HZ 
      BECMG 0116/0119 1500 BR PROB40 0117/0119 0200 FG BKN001
      
TAF EGWU 011641Z 0118/0212 02005KT 5000 BR FEW005 PROB30 0118/0120 4000 BR SCT005 PROB40 0120/0208 3000 BKN004 PROB30 0121/0207 0500 FG VV/// 
      BECMG 0206/0209 9999 NSW
      
TAF EGXC 020157Z 0203/0221 VRB03KT 0300 FG OVC000 PROB40 
      TEMPO 0203/0205 3000 BR BKN003 
      BECMG 0205/0208 3000 BR FEW003 BKN030 
      BECMG 0208/0211 9999 NSW PROB30 
      TEMPO 0208/0210 SCT003 
      TEMPO 0210/0221 SCT015 PROB30 
      TEMPO 0211/0221 6000 SHRA SCT014
      
TAF AMD EGXE 011947Z 0119/0123 CNL
      
TAF EGXT 011217Z 0112/0118 CNL
      
TAF EGXW 011937Z 0118/0212 CNL
      
TAF AMD EGYD 011547Z 0115/0119 VRB05KT 4000 BR BKN005 
      BECMG 0116/0119 2000 BR BKN003
      
TAF EGYE 011410Z 0113/0119 CNL
      
TAF EGYM 011330Z 0115/0118 01003KT 5000 BR FEW024 BKN035 
      TEMPO 0115/0118 SCT024 PROB30 0116/0118 3000 BR
      
TAF EGYP 020132Z 0203/0221 33025G35KT 9999 FEW007 520003 PROB40 
      TEMPO 0203/0209 33035G45KT 530003 PROB30 
      TEMPO 0203/0209 VRB07KT SCT007 560003 
      BECMG 0209/0212 30016G26KT 50//// PROB40 
      TEMPO 0215/0221 12015KT PROB30 
      TEMPO 0216/0221 29025G35KT 4000 +SHRA BKN040CB
      

About You

Log In Register UKGA membership

Airfields

Interactive airfield map Search by name Search by postcode Search by location Fuel prices Pilot reviews Latest
(No favourites selected)

Flight planning

Flight planning New flightplan NOTAM map LARS map & NOTAMs Danger area, mil. & TRA activations Weather map GPS route download Find waypoints Your waypoints New waypoint

Forums

Forums Currently discussing "Are you still in business for a/c share sales?"

Other items

Articles Events Links News Surveys Tips Other users Feedback UKGA membership About UKGA